Time;durP1;ratioP1;P1;durP2;ratioP2;P2;SDS_P1;SDS_P2;PMS_P1;PMS_P2;Temp;Humidity;BMP_temperature;BMP_pressure;BME280_temperature;BME280_humidity;BME280_pressure;Samples;Min_cycle;Max_cycle;Signal;HPM_P1;HPM_P2
2023/08/28 00:02:38;;;;;;;6.72;2.72;;;15.80;99.90;;;;;;6255476;28;20184;-82
2023/08/28 00:05:40;;;;;;;7.00;2.78;;;15.70;99.90;;;;;;6255642;28;20520;-81
2023/08/28 00:08:42;;;;;;;4.90;2.70;;;15.80;99.90;;;;;;6255571;28;20057;-80
2023/08/28 00:11:45;;;;;;;5.07;2.10;;;15.70;99.90;;;;;;6255788;28;20054;-80
2023/08/28 00:14:46;;;;;;;3.25;2.95;;;15.70;99.90;;;;;;6255558;28;20053;-81
2023/08/28 00:17:48;;;;;;;4.00;2.60;;;15.70;99.90;;;;;;6255633;28;20073;-81
2023/08/28 00:20:50;;;;;;;5.75;3.08;;;15.70;99.90;;;;;;6255185;28;20048;-82
2023/08/28 00:23:51;;;;;;;2.50;2.30;;;15.60;99.90;;;;;;6253087;28;20049;-82
2023/08/28 00:26:54;;;;;;;8.88;3.38;;;15.60;99.90;;;;;;6254066;28;20046;-82
2023/08/28 00:29:56;;;;;;;4.28;2.67;;;15.50;99.90;;;;;;6256599;28;20057;-81
2023/08/28 00:32:58;;;;;;;3.17;2.88;;;15.50;99.90;;;;;;6256417;28;20041;-81
2023/08/28 00:35:59;;;;;;;4.60;3.38;;;15.40;99.90;;;;;;6254912;28;20060;-82
2023/08/28 00:39:02;;;;;;;5.43;2.80;;;15.40;99.90;;;;;;6256768;28;20069;-81
2023/08/28 00:42:05;;;;;;;4.97;3.15;;;15.30;99.90;;;;;;6255297;28;20054;-82
2023/08/28 00:45:08;;;;;;;4.43;2.70;;;15.30;99.90;;;;;;6255354;28;20049;-80
2023/08/28 00:48:11;;;;;;;4.80;2.88;;;15.30;99.90;;;;;;6255294;28;20045;-81
2023/08/28 00:51:13;;;;;;;4.10;3.00;;;15.30;99.90;;;;;;6255697;28;20063;-82
2023/08/28 00:54:15;;;;;;;3.15;2.50;;;15.20;99.90;;;;;;6256381;28;20092;-82
2023/08/28 00:57:18;;;;;;;3.50;3.05;;;15.20;99.90;;;;;;6256154;28;20047;-83
2023/08/28 01:00:20;;;;;;;3.47;3.15;;;15.20;99.90;;;;;;6254680;28;20061;-83
2023/08/28 01:03:21;;;;;;;5.00;3.40;;;15.20;99.90;;;;;;6256037;28;20065;-81
2023/08/28 01:06:36;;;;;;;8.15;2.78;;;15.20;99.90;;;;;;6255750;28;20052;-81
2023/08/28 01:09:46;;;;;;;6.05;2.92;;;15.20;99.90;;;;;;6256097;28;20045;-81
2023/08/28 01:12:56;;;;;;;2.85;2.65;;;15.20;99.90;;;;;;6256497;28;20048;-80
2023/08/28 01:15:59;;;;;;;3.10;2.85;;;15.20;99.90;;;;;;6252437;28;20068;-82
2023/08/28 01:19:01;;;;;;;3.92;3.08;;;15.20;99.90;;;;;;6255625;28;20049;-82
2023/08/28 01:22:11;;;;;;;3.03;2.47;;;15.20;99.90;;;;;;6255872;28;20056;-81
2023/08/28 01:25:16;;;;;;;5.82;3.42;;;15.20;99.90;;;;;;6256907;28;20049;-81
2023/08/28 01:28:18;;;;;;;6.07;2.95;;;15.20;99.90;;;;;;6256310;28;20045;-82
2023/08/28 01:31:19;;;;;;;3.08;2.78;;;15.20;99.90;;;;;;6256612;28;20050;-83
2023/08/28 01:34:21;;;;;;;3.15;2.70;;;15.20;99.90;;;;;;6255924;28;20056;-81
2023/08/28 01:37:26;;;;;;;2.90;2.45;;;15.20;99.90;;;;;;6256544;28;20064;-79
2023/08/28 01:40:35;;;;;;;3.50;2.58;;;15.10;99.90;;;;;;6255217;28;20413;-81
2023/08/28 01:43:39;;;;;;;2.95;2.60;;;15.10;99.90;;;;;;6258121;28;20056;-82
2023/08/28 01:46:41;;;;;;;6.35;2.92;;;15.10;99.90;;;;;;6256224;28;20045;-82
2023/08/28 01:49:42;;;;;;;3.50;3.13;;;15.10;99.90;;;;;;6257205;28;20045;-81
2023/08/28 01:52:44;;;;;;;19.92;8.00;;;15.10;99.90;;;;;;6253630;28;20607;-80
2023/08/28 01:56:19;;;;;;;6.22;3.03;;;15.10;99.90;;;;;;6254326;28;20424;-80
2023/08/28 01:59:22;;;;;;;3.95;2.60;;;15.10;99.90;;;;;;6252851;28;20056;-82
2023/08/28 02:02:24;;;;;;;4.55;2.88;;;15.10;99.90;;;;;;6254818;28;20054;-79
2023/08/28 02:05:27;;;;;;;3.65;3.33;;;15.10;99.90;;;;;;6253965;28;20416;-82
2023/08/28 02:08:29;;;;;;;7.57;3.50;;;15.00;99.90;;;;;;6252548;28;20045;-82
2023/08/28 02:11:30;;;;;;;11.77;3.17;;;15.00;99.90;;;;;;6253911;28;20045;-81
2023/08/28 02:14:33;;;;;;;4.22;2.97;;;15.00;99.90;;;;;;6253586;28;20623;-83
2023/08/28 02:17:35;;;;;;;3.40;3.10;;;15.00;99.90;;;;;;6252716;28;20389;-83
2023/08/28 02:20:37;;;;;;;3.63;2.92;;;15.00;99.90;;;;;;6251788;28;20072;-81
2023/08/28 02:23:38;;;;;;;5.47;3.42;;;15.00;99.90;;;;;;6254009;28;20045;-81
2023/08/28 02:26:40;;;;;;;7.78;3.33;;;15.00;99.90;;;;;;6253176;28;20053;-82
2023/08/28 02:29:43;;;;;;;3.28;3.08;;;15.00;99.90;;;;;;6252060;28;20049;-81
2023/08/28 02:32:45;;;;;;;3.95;3.00;;;15.00;99.90;;;;;;6253168;28;20686;-81
2023/08/28 02:35:47;;;;;;;5.20;3.50;;;15.00;99.90;;;;;;6253715;28;20049;-80
2023/08/28 02:38:49;;;;;;;3.45;3.15;;;15.00;99.90;;;;;;6252435;28;20156;-82
2023/08/28 02:41:50;;;;;;;6.82;3.97;;;14.90;99.90;;;;;;6252767;28;20436;-82
2023/08/28 02:44:53;;;;;;;3.30;3.00;;;14.90;99.90;;;;;;6253412;28;20528;-79
2023/08/28 02:47:55;;;;;;;6.65;3.83;;;14.80;99.90;;;;;;6252622;28;20049;-80
2023/08/28 02:50:56;;;;;;;14.95;4.07;;;14.80;99.90;;;;;;6253475;28;20049;-83
2023/08/28 02:53:58;;;;;;;4.47;3.95;;;14.80;99.90;;;;;;6253185;28;20053;-82
2023/08/28 02:57:01;;;;;;;4.55;2.85;;;14.80;99.90;;;;;;6252913;28;20056;-83
2023/08/28 03:00:06;;;;;;;7.43;3.70;;;14.70;99.90;;;;;;6252656;28;20057;-81
2023/08/28 03:03:08;;;;;;;5.18;3.45;;;14.80;99.90;;;;;;6252865;28;20051;-81
2023/08/28 03:06:10;;;;;;;4.15;3.80;;;14.70;99.90;;;;;;6251709;28;20512;-82
2023/08/28 03:09:12;;;;;;;7.15;4.18;;;14.60;99.90;;;;;;6252228;28;20045;-81
2023/08/28 03:12:14;;;;;;;6.22;3.25;;;14.50;99.90;;;;;;6253602;28;20053;-82
2023/08/28 03:15:17;;;;;;;5.20;4.68;;;14.50;99.90;;;;;;6253211;28;20508;-82
2023/08/28 03:18:19;;;;;;;7.28;4.22;;;14.50;99.90;;;;;;6252077;28;20044;-82
2023/08/28 03:21:21;;;;;;;5.15;3.75;;;14.50;99.90;;;;;;6251693;28;20055;-80
2023/08/28 03:24:23;;;;;;;6.88;3.15;;;14.50;99.90;;;;;;6251653;28;20048;-80
2023/08/28 03:27:25;;;;;;;4.90;4.40;;;14.50;99.90;;;;;;6250869;28;20046;-81
2023/08/28 03:30:28;;;;;;;6.30;4.53;;;14.50;99.90;;;;;;6251601;28;20077;-81
2023/08/28 03:33:29;;;;;;;7.10;4.20;;;14.50;99.90;;;;;;6252147;28;20124;-82
2023/08/28 03:36:31;;;;;;;6.45;5.05;;;14.50;99.90;;;;;;6251585;28;20508;-82
2023/08/28 03:39:33;;;;;;;6.40;4.20;;;14.50;99.90;;;;;;6251135;28;20176;-81
2023/08/28 03:42:34;;;;;;;4.40;3.30;;;14.50;99.90;;;;;;6251305;28;20045;-83
2023/08/28 03:45:37;;;;;;;5.57;4.63;;;14.40;99.90;;;;;;6249222;28;20045;-82
2023/08/28 03:48:39;;;;;;;7.22;4.45;;;14.40;99.90;;;;;;6250670;28;20502;-82
2023/08/28 03:51:41;;;;;;;3.80;3.47;;;14.40;99.90;;;;;;6251570;28;20060;-80
2023/08/28 03:54:42;;;;;;;8.38;3.90;;;14.40;99.90;;;;;;6250955;28;20532;-81
2023/08/28 03:57:44;;;;;;;4.28;3.90;;;14.40;99.90;;;;;;6250554;28;20062;-80
2023/08/28 04:00:47;;;;;;;9.15;4.50;;;14.40;99.90;;;;;;6251202;28;20439;-82
2023/08/28 04:03:49;;;;;;;6.22;4.47;;;14.40;99.90;;;;;;6251372;28;20049;-79
2023/08/28 04:06:51;;;;;;;4.68;3.47;;;14.50;99.90;;;;;;6250977;28;20052;-81
2023/08/28 04:09:52;;;;;;;4.20;3.80;;;14.50;99.90;;;;;;6250961;28;20049;-80
2023/08/28 04:12:54;;;;;;;4.00;3.70;;;14.50;99.90;;;;;;6250221;28;20055;-81
2023/08/28 04:15:58;;;;;;;4.65;4.20;;;14.50;99.90;;;;;;6250627;28;20057;-81
2023/08/28 04:18:59;;;;;;;5.78;3.90;;;14.50;99.90;;;;;;6250911;28;20056;-81
2023/08/28 04:22:01;;;;;;;10.82;3.70;;;14.50;99.90;;;;;;6251096;28;20060;-81
2023/08/28 04:25:03;;;;;;;4.60;3.72;;;14.40;99.90;;;;;;6251555;28;20412;-81
2023/08/28 04:28:05;;;;;;;4.05;3.53;;;14.40;99.90;;;;;;6252685;28;20046;-81
2023/08/28 04:31:10;;;;;;;7.28;3.63;;;14.40;99.90;;;;;;6254614;28;20076;-79
2023/08/28 04:34:12;;;;;;;5.78;3.85;;;14.50;99.90;;;;;;6255734;28;20090;-81
2023/08/28 04:37:13;;;;;;;3.65;3.00;;;14.50;99.90;;;;;;6254244;28;20049;-81
2023/08/28 04:40:15;;;;;;;5.50;3.25;;;14.50;99.90;;;;;;6254181;28;20050;-82
2023/08/28 04:43:17;;;;;;;6.43;4.25;;;14.50;99.90;;;;;;6254794;28;20060;-81
2023/08/28 04:46:21;;;;;;;4.00;3.60;;;14.50;99.90;;;;;;6255370;28;20046;-81
2023/08/28 04:49:23;;;;;;;4.35;3.88;;;14.50;99.90;;;;;;6254636;28;20052;-81
2023/08/28 04:52:25;;;;;;;6.78;3.22;;;14.50;99.90;;;;;;6254885;28;20527;-79
2023/08/28 04:55:27;;;;;;;7.30;3.67;;;14.50;99.90;;;;;;6254607;28;20420;-81
2023/08/28 04:58:28;;;;;;;5.35;3.53;;;14.50;99.90;;;;;;6255096;28;20045;-81
2023/08/28 05:01:31;;;;;;;4.15;3.80;;;14.50;99.90;;;;;;6255839;28;20045;-80
2023/08/28 05:04:33;;;;;;;5.13;3.53;;;14.50;99.90;;;;;;6254922;28;20404;-81
2023/08/28 05:07:35;;;;;;;5.18;4.32;;;14.50;99.90;;;;;;6253996;28;20417;-80
2023/08/28 05:10:37;;;;;;;6.60;4.10;;;14.50;99.90;;;;;;6254389;28;20056;-80
2023/08/28 05:13:38;;;;;;;5.85;3.85;;;14.60;99.90;;;;;;6253925;28;20045;-81
2023/08/28 05:16:41;;;;;;;4.47;3.88;;;14.50;99.90;;;;;;6251981;28;20042;-81
2023/08/28 05:19:43;;;;;;;7.82;4.15;;;14.50;99.90;;;;;;6254712;28;20045;-79
2023/08/28 05:22:45;;;;;;;8.90;3.65;;;14.50;99.90;;;;;;6254349;28;20048;-81
2023/08/28 05:25:46;;;;;;;4.97;3.47;;;14.50;99.90;;;;;;6254620;28;20059;-80
2023/08/28 05:28:48;;;;;;;4.50;3.17;;;14.60;99.90;;;;;;6252900;28;20052;-81
2023/08/28 05:31:51;;;;;;;6.72;4.72;;;14.60;99.90;;;;;;6253327;28;20049;-81
2023/08/28 05:34:53;;;;;;;4.85;4.35;;;14.60;99.90;;;;;;6252920;28;20045;-82
2023/08/28 05:37:55;;;;;;;7.93;4.60;;;14.70;99.90;;;;;;6253333;28;20509;-82
2023/08/28 05:40:56;;;;;;;3.78;3.47;;;14.70;99.90;;;;;;6253082;28;20049;-81
2023/08/28 05:43:58;;;;;;;4.82;4.43;;;14.70;99.90;;;;;;6252736;28;20061;-82
2023/08/28 05:47:01;;;;;;;5.90;4.75;;;14.80;99.90;;;;;;6254807;28;20060;-81
2023/08/28 05:50:04;;;;;;;4.07;3.78;;;14.80;99.90;;;;;;6240360;28;20493;-81
2023/08/28 05:53:06;;;;;;;4.70;3.92;;;14.80;99.90;;;;;;6244381;28;20598;-82
2023/08/28 05:56:08;;;;;;;3.78;3.38;;;14.90;99.90;;;;;;6249799;28;20081;-80
2023/08/28 05:59:09;;;;;;;5.75;3.63;;;15.00;99.90;;;;;;6248140;28;20045;-82
2023/08/28 06:02:13;;;;;;;7.93;3.92;;;15.00;99.90;;;;;;6249749;28;20428;-80
2023/08/28 06:05:15;;;;;;;9.65;3.80;;;15.10;99.90;;;;;;6251322;28;20212;-80
2023/08/28 06:08:17;;;;;;;5.85;3.70;;;15.10;99.90;;;;;;6250261;28;20044;-81
2023/08/28 06:11:19;;;;;;;4.28;3.80;;;15.10;99.90;;;;;;6251418;28;20052;-81
2023/08/28 06:14:20;;;;;;;5.78;5.03;;;15.10;99.90;;;;;;6251241;28;20069;-81
2023/08/28 06:17:24;;;;;;;5.32;3.10;;;15.10;99.90;;;;;;6250801;28;20060;-82
2023/08/28 06:20:26;;;;;;;4.85;4.25;;;15.10;99.90;;;;;;6251324;28;20046;-82
2023/08/28 06:23:27;;;;;;;6.30;4.57;;;15.20;99.90;;;;;;6250674;28;20136;-83
2023/08/28 06:26:29;;;;;;;8.38;6.05;;;15.30;99.90;;;;;;6250179;28;20346;-81
2023/08/28 06:29:31;;;;;;;5.75;4.88;;;15.30;99.90;;;;;;6250251;28;20056;-81
2023/08/28 06:32:34;;;;;;;4.68;4.20;;;15.40;99.90;;;;;;6251707;28;20069;-80
2023/08/28 06:35:36;;;;;;;7.07;5.07;;;15.40;99.90;;;;;;6252312;28;20064;-81
2023/08/28 06:38:37;;;;;;;6.68;5.22;;;15.50;99.90;;;;;;6251710;28;20049;-83
2023/08/28 06:41:39;;;;;;;13.57;7.63;;;15.50;99.90;;;;;;6254819;28;20056;-79
2023/08/28 06:44:41;;;;;;;102.85;57.47;;;15.50;99.90;;;;;;6254166;28;20514;-80
2023/08/28 06:47:44;;;;;;;11.50;9.65;;;15.60;99.90;;;;;;6254190;28;20140;-81
2023/08/28 06:50:46;;;;;;;7.10;5.70;;;15.70;99.90;;;;;;6255017;28;20045;-81
2023/08/28 06:53:48;;;;;;;5.00;4.50;;;15.70;99.90;;;;;;6259350;28;20483;-84
2023/08/28 06:56:50;;;;;;;5.72;3.90;;;15.90;99.90;;;;;;6263807;28;20045;-81
2023/08/28 06:59:53;;;;;;;5.20;4.45;;;15.80;99.90;;;;;;6257702;28;20060;-80
2023/08/28 07:02:56;;;;;;;5.85;4.90;;;15.90;99.90;;;;;;6252430;28;20048;-81
2023/08/28 07:05:58;;;;;;;5.13;3.85;;;15.90;99.90;;;;;;6235827;28;20049;-81
2023/08/28 07:09:01;;;;;;;4.40;3.75;;;15.90;99.90;;;;;;6252519;28;20077;-81
2023/08/28 07:12:02;;;;;;;5.93;4.25;;;16.00;99.90;;;;;;6254171;28;20493;-80
2023/08/28 07:15:40;;;;;;;6.78;3.95;;;16.00;99.90;;;;;;6253931;28;20053;-82
2023/08/28 07:18:43;;;;;;;4.05;3.65;;;16.20;99.90;;;;;;6251553;28;20045;-82
2023/08/28 07:21:45;;;;;;;3.88;3.45;;;16.30;99.90;;;;;;6254609;28;20048;-80
2023/08/28 07:24:46;;;;;;;3.28;2.97;;;16.40;99.90;;;;;;6255784;28;20053;-80
2023/08/28 07:27:48;;;;;;;4.40;2.75;;;16.60;99.90;;;;;;6257209;28;20117;-82
2023/08/28 07:30:50;;;;;;;5.03;3.17;;;16.70;99.90;;;;;;6252268;28;20044;-81
2023/08/28 07:33:53;;;;;;;3.88;3.45;;;16.70;99.90;;;;;;6255232;28;20420;-82
2023/08/28 07:36:55;;;;;;;4.05;3.65;;;16.70;99.90;;;;;;6255170;28;20045;-80
2023/08/28 07:39:56;;;;;;;3.58;2.47;;;16.70;99.90;;;;;;6255498;28;20046;-81
2023/08/28 07:42:58;;;;;;;3.85;3.15;;;16.80;99.90;;;;;;6257537;28;20057;-80
2023/08/28 07:46:00;;;;;;;4.82;2.75;;;16.80;99.90;;;;;;6257295;28;20049;-81
2023/08/28 07:49:03;;;;;;;5.47;2.90;;;16.90;99.90;;;;;;6257005;28;20045;-80
2023/08/28 07:52:05;;;;;;;5.38;2.65;;;16.90;99.90;;;;;;6258036;28;20576;-82
2023/08/28 07:55:08;;;;;;;3.85;3.55;;;16.90;99.90;;;;;;6257285;28;20063;-82
2023/08/28 07:58:09;;;;;;;7.20;2.90;;;16.90;99.90;;;;;;6258909;28;20056;-80
2023/08/28 08:01:11;;;;;;;5.63;2.80;;;16.90;99.90;;;;;;6263868;28;20045;-81
2023/08/28 08:04:15;;;;;;;2.90;2.08;;;16.90;99.90;;;;;;6266049;28;20049;-80
2023/08/28 08:07:16;;;;;;;7.30;3.60;;;16.90;99.90;;;;;;6267233;28;20071;-80
2023/08/28 08:10:18;;;;;;;3.72;2.80;;;17.10;99.90;;;;;;6264590;28;20046;-82
2023/08/28 08:13:20;;;;;;;3.13;2.92;;;17.00;99.90;;;;;;6266326;28;20049;-82
2023/08/28 08:16:21;;;;;;;4.53;3.13;;;17.10;99.90;;;;;;6270819;28;20045;-83
2023/08/28 08:19:24;;;;;;;6.32;3.13;;;17.30;99.90;;;;;;6257268;28;20056;-81
2023/08/28 08:22:26;;;;;;;3.67;2.88;;;17.30;99.90;;;;;;6257564;28;20050;-79
2023/08/28 08:25:28;;;;;;;5.55;2.72;;;17.30;99.90;;;;;;6252056;28;20061;-81
2023/08/28 08:28:32;;;;;;;6.57;2.97;;;17.30;99.90;;;;;;6260069;28;20449;-83
2023/08/28 08:31:33;;;;;;;3.08;2.00;;;17.40;99.90;;;;;;6259460;28;20091;-80
2023/08/28 08:34:36;;;;;;;4.32;2.67;;;17.30;99.90;;;;;;6259796;28;20056;-81
2023/08/28 08:37:38;;;;;;;3.70;2.08;;;17.30;99.90;;;;;;6260016;28;20053;-81
2023/08/28 08:40:41;;;;;;;3.80;2.35;;;17.30;99.90;;;;;;6259111;28;20048;-81
2023/08/28 08:43:43;;;;;;;4.55;2.80;;;17.30;99.90;;;;;;6259880;28;20049;-81
2023/08/28 08:46:45;;;;;;;5.55;3.00;;;17.40;99.90;;;;;;6256306;28;20042;-81
2023/08/28 08:49:55;;;;;;;6.95;2.38;;;17.40;99.90;;;;;;6258710;28;20104;-82
2023/08/28 08:53:01;;;;;;;5.65;3.35;;;17.50;99.90;;;;;;6259699;28;20045;-82
2023/08/28 08:56:05;;;;;;;7.07;2.50;;;17.40;99.90;;;;;;6259692;28;20500;-81
2023/08/28 08:59:07;;;;;;;4.60;2.60;;;17.50;99.90;;;;;;6259617;28;20049;-79
2023/08/28 09:02:12;;;;;;;3.10;2.30;;;17.60;99.90;;;;;;6258686;28;20129;-81
2023/08/28 09:05:16;;;;;;;4.20;2.50;;;17.60;99.90;;;;;;6259969;28;20045;-82
2023/08/28 09:08:21;;;;;;;2.75;2.47;;;17.70;99.90;;;;;;6259195;28;20438;-81
2023/08/28 09:11:22;;;;;;;3.28;2.45;;;17.80;99.90;;;;;;6258789;28;20130;-82
2023/08/28 09:14:24;;;;;;;3.05;2.45;;;17.80;99.90;;;;;;6258463;28;20057;-81
2023/08/28 09:17:26;;;;;;;3.25;2.83;;;17.90;99.90;;;;;;6258516;28;20136;-81
2023/08/28 09:20:29;;;;;;;4.43;2.42;;;17.90;99.90;;;;;;6258120;28;20432;-81
2023/08/28 09:23:32;;;;;;;4.45;2.83;;;18.00;99.90;;;;;;6258817;28;20427;-80
2023/08/28 09:26:34;;;;;;;4.38;2.85;;;18.10;99.90;;;;;;6258089;28;20099;-81
2023/08/28 09:29:39;;;;;;;2.75;1.75;;;18.30;99.90;;;;;;6258894;28;20045;-81
2023/08/28 09:32:46;;;;;;;3.70;3.30;;;18.50;99.90;;;;;;6258349;28;20048;-81
2023/08/28 09:35:49;;;;;;;3.10;2.30;;;18.60;99.90;;;;;;6258462;28;20096;-79
2023/08/28 09:38:51;;;;;;;4.82;2.05;;;18.70;99.90;;;;;;6258104;28;20493;-81
2023/08/28 09:41:53;;;;;;;5.03;2.38;;;18.90;99.90;;;;;;6258617;28;20050;-81
2023/08/28 09:44:55;;;;;;;4.35;3.20;;;19.00;99.90;;;;;;6259178;28;20041;-80
2023/08/28 09:47:57;;;;;;;5.57;3.13;;;19.00;99.90;;;;;;6258803;28;20049;-81
2023/08/28 09:51:03;;;;;;;3.58;2.35;;;19.00;99.90;;;;;;6257799;28;20416;-79
2023/08/28 09:54:06;;;;;;;4.07;2.03;;;19.00;99.90;;;;;;6258547;28;20064;-82
2023/08/28 09:57:17;;;;;;;5.35;2.35;;;19.20;99.90;;;;;;6257704;28;20045;-79
2023/08/28 10:00:20;;;;;;;5.05;2.00;;;19.30;99.90;;;;;;6256848;28;20133;-80
2023/08/28 10:03:23;;;;;;;3.38;2.13;;;19.60;99.90;;;;;;6259561;28;20055;-82
2023/08/28 10:06:28;;;;;;;7.05;2.65;;;19.80;99.90;;;;;;6257682;28;20124;-80
2023/08/28 10:09:33;;;;;;;2.60;2.40;;;20.00;99.90;;;;;;6258507;28;20094;-82
2023/08/28 10:12:35;;;;;;;4.15;2.22;;;19.90;99.90;;;;;;6258153;28;20041;-82
2023/08/28 10:15:42;;;;;;;4.13;1.75;;;20.10;99.90;;;;;;6257657;28;20056;-82
2023/08/28 10:18:50;;;;;;;4.05;2.42;;;20.30;99.90;;;;;;6255487;28;20423;-80
2023/08/28 10:21:54;;;;;;;5.32;2.67;;;20.60;99.90;;;;;;6257766;28;20045;-81
2023/08/28 10:24:58;;;;;;;6.28;2.13;;;20.80;99.90;;;;;;6256109;28;20057;-80
2023/08/28 10:28:00;;;;;;;4.32;1.98;;;21.10;99.90;;;;;;6257031;28;20054;-79
2023/08/28 10:31:03;;;;;;;2.75;2.00;;;21.40;99.90;;;;;;6258898;28;20324;-82
2023/08/28 10:34:06;;;;;;;2.63;1.90;;;21.60;99.90;;;;;;6258002;28;20046;-82
2023/08/28 10:37:10;;;;;;;3.22;1.75;;;21.70;99.90;;;;;;6256785;28;20512;-82
2023/08/28 10:40:13;;;;;;;6.63;1.55;;;21.70;99.90;;;;;;6257470;28;20063;-80
2023/08/28 10:43:15;;;;;;;2.92;2.08;;;21.90;99.60;;;;;;6257065;28;20053;-82
2023/08/28 10:46:17;;;;;;;2.33;1.50;;;22.20;99.10;;;;;;6255447;28;20042;-81
2023/08/28 10:49:19;;;;;;;2.13;1.90;;;22.50;98.30;;;;;;6256204;28;20042;-81
2023/08/28 10:52:23;;;;;;;1.90;1.48;;;22.50;97.10;;;;;;6252277;28;20125;-80
2023/08/28 10:55:27;;;;;;;1.75;1.45;;;22.50;96.20;;;;;;6256169;28;20054;-83
2023/08/28 10:58:30;;;;;;;2.78;1.35;;;22.80;95.90;;;;;;6253984;28;20049;-81
2023/08/28 11:01:48;;;;;;;4.53;1.70;;;23.10;95.30;;;;;;6256074;28;20049;-81
2023/08/28 11:04:50;;;;;;;2.65;1.55;;;23.20;93.80;;;;;;6254809;28;20056;-81
2023/08/28 11:07:55;;;;;;;2.10;1.33;;;23.10;93.90;;;;;;6255826;28;20049;-81
2023/08/28 11:11:13;;;;;;;1.80;1.65;;;23.00;93.60;;;;;;6256268;28;20448;-81
2023/08/28 11:14:14;;;;;;;5.85;1.73;;;23.10;93.20;;;;;;6256412;28;20064;-80
2023/08/28 11:17:16;;;;;;;1.73;1.52;;;23.40;93.00;;;;;;6255438;28;20053;-81
2023/08/28 11:20:21;;;;;;;7.07;2.10;;;23.50;92.40;;;;;;6254839;28;20053;-80
2023/08/28 11:23:26;;;;;;;3.95;2.05;;;23.70;92.00;;;;;;6254419;28;20054;-82
2023/08/28 11:26:30;;;;;;;3.08;2.33;;;23.70;91.70;;;;;;6251233;28;20037;-79
2023/08/28 11:29:32;;;;;;;2.25;1.73;;;23.70;91.60;;;;;;6240490;28;20041;-80
2023/08/28 11:32:34;;;;;;;5.10;1.70;;;23.90;91.10;;;;;;6250539;28;21147;-80
2023/08/28 11:35:36;;;;;;;2.28;1.92;;;23.90;90.90;;;;;;6260546;28;20152;-80
2023/08/28 11:38:41;;;;;;;3.13;2.55;;;24.00;90.80;;;;;;6262027;28;20052;-82
2023/08/28 11:41:43;;;;;;;3.10;1.92;;;24.20;90.20;;;;;;6262476;28;20049;-81
2023/08/28 11:44:44;;;;;;;4.63;2.40;;;24.30;90.00;;;;;;6259289;28;20052;-81
2023/08/28 11:47:46;;;;;;;3.08;1.60;;;24.40;89.60;;;;;;6259024;28;20140;-81
2023/08/28 11:50:48;;;;;;;1.88;1.70;;;24.50;88.70;;;;;;6259328;28;20045;-81
2023/08/28 11:53:51;;;;;;;3.08;1.92;;;24.80;88.10;;;;;;6259067;28;20057;-82
2023/08/28 11:56:59;;;;;;;3.33;1.73;;;25.00;87.60;;;;;;6259709;28;20054;-82
2023/08/28 12:00:04;;;;;;;2.63;1.67;;;24.80;86.00;;;;;;6261519;28;20049;-81
2023/08/28 12:03:06;;;;;;;2.17;1.52;;;24.60;84.20;;;;;;6261807;28;20064;-80
2023/08/28 12:06:12;;;;;;;4.35;2.58;;;24.10;84.60;;;;;;6241686;28;20045;-81
2023/08/28 12:09:15;;;;;;;3.08;2.10;;;24.00;85.00;;;;;;6254410;28;20128;-81
2023/08/28 12:12:18;;;;;;;5.75;3.45;;;23.90;85.10;;;;;;6252759;28;20400;-80
2023/08/28 12:15:19;;;;;;;3.55;2.78;;;23.70;84.70;;;;;;6255582;28;20080;-80
2023/08/28 12:18:21;;;;;;;3.58;3.15;;;23.60;85.20;;;;;;6254522;28;20060;-81
2023/08/28 12:21:35;;;;;;;4.25;3.67;;;23.40;85.20;;;;;;6257546;28;20065;-82
2023/08/28 12:24:41;;;;;;;2.50;2.25;;;23.20;85.40;;;;;;6254346;28;20045;-80
2023/08/28 12:27:43;;;;;;;6.83;2.20;;;23.00;86.20;;;;;;6256274;28;20095;-80
2023/08/28 12:30:52;;;;;;;2.22;2.03;;;23.00;86.10;;;;;;6261205;28;20128;-80
2023/08/28 12:33:54;;;;;;;4.30;2.53;;;22.90;85.90;;;;;;6258059;28;20041;-81
2023/08/28 12:37:04;;;;;;;2.03;1.88;;;22.70;85.60;;;;;;6256174;28;20119;-81
2023/08/28 12:40:12;;;;;;;2.85;1.75;;;22.60;85.40;;;;;;6258466;28;20049;-80
2023/08/28 12:43:16;;;;;;;4.43;1.73;;;22.50;85.50;;;;;;6258462;28;20033;-81
2023/08/28 12:46:17;;;;;;;4.47;1.92;;;22.40;85.20;;;;;;6255573;28;20149;-80
2023/08/28 12:49:19;;;;;;;2.20;1.67;;;22.30;85.10;;;;;;6254208;28;20050;-83
2023/08/28 12:52:21;;;;;;;2.25;2.05;;;22.10;85.00;;;;;;6257038;28;20049;-81
2023/08/28 12:55:24;;;;;;;2.63;1.92;;;22.00;85.20;;;;;;6256159;28;20050;-83
2023/08/28 12:58:26;;;;;;;2.50;1.85;;;22.00;85.30;;;;;;6256076;28;20049;-81
2023/08/28 13:01:28;;;;;;;2.03;1.60;;;21.80;85.50;;;;;;6258961;28;20056;-82
2023/08/28 13:04:30;;;;;;;4.22;1.83;;;21.80;85.50;;;;;;6259213;28;20038;-82
2023/08/28 13:07:31;;;;;;;3.28;1.90;;;21.70;85.70;;;;;;6258010;28;20057;-83
2023/08/28 13:10:35;;;;;;;4.50;1.90;;;21.60;85.70;;;;;;6258322;28;20041;-81
2023/08/28 13:13:36;;;;;;;3.90;2.38;;;21.60;86.10;;;;;;6259063;28;20048;-82
2023/08/28 13:16:38;;;;;;;4.38;1.85;;;21.50;86.20;;;;;;6259325;28;20045;-81
2023/08/28 13:19:40;;;;;;;2.13;1.63;;;21.40;86.50;;;;;;6259782;28;20118;-81
2023/08/28 13:22:41;;;;;;;2.15;1.45;;;21.50;86.50;;;;;;6259402;28;20508;-81
2023/08/28 13:25:45;;;;;;;3.17;2.13;;;21.40;85.10;;;;;;6258551;28;20465;-81
2023/08/28 13:28:46;;;;;;;2.53;1.58;;;21.50;84.90;;;;;;6254090;28;20051;-81
2023/08/28 13:31:48;;;;;;;2.53;2.28;;;21.50;84.70;;;;;;6260404;28;20084;-81
2023/08/28 13:34:50;;;;;;;2.67;1.65;;;21.50;84.70;;;;;;6259543;28;20065;-82
2023/08/28 13:37:51;;;;;;;3.97;1.73;;;21.40;85.30;;;;;;6259157;28;20045;-82
2023/08/28 13:40:54;;;;;;;2.03;1.92;;;21.40;85.20;;;;;;6258667;28;20146;-82
2023/08/28 13:43:56;;;;;;;2.00;1.83;;;21.20;85.90;;;;;;6258103;28;20635;-83
2023/08/28 13:46:58;;;;;;;2.85;1.95;;;21.30;86.70;;;;;;6257956;28;20520;-83
2023/08/28 13:50:03;;;;;;;5.00;1.88;;;21.30;86.90;;;;;;6254513;28;20156;-82
2023/08/28 13:53:11;;;;;;;3.35;2.05;;;21.20;87.00;;;;;;6230515;28;20053;-81
2023/08/28 13:56:14;;;;;;;2.40;1.90;;;21.10;87.00;;;;;;6257050;28;20508;-84
2023/08/28 13:59:16;;;;;;;3.08;1.70;;;21.10;87.00;;;;;;6247058;28;20049;-82
2023/08/28 14:05:38;;;;;;;2.53;1.75;;;21.10;87.00;;;;;;6256000;28;20045;-82
2023/08/28 14:08:40;;;;;;;2.00;1.58;;;21.00;87.40;;;;;;6257068;28;20037;-81
2023/08/28 14:11:44;;;;;;;2.28;2.08;;;21.00;88.20;;;;;;6258358;28;20057;-83
2023/08/28 14:14:46;;;;;;;4.75;3.03;;;21.10;88.60;;;;;;6257448;28;21090;-82
2023/08/28 14:17:48;;;;;;;2.75;1.98;;;21.10;88.60;;;;;;6256383;28;20148;-80
2023/08/28 14:20:52;;;;;;;4.28;1.60;;;21.20;88.80;;;;;;6259180;28;20654;-81
2023/08/28 14:23:53;;;;;;;2.15;2.00;;;21.20;88.60;;;;;;6259227;28;20053;-81
2023/08/28 14:26:56;;;;;;;3.13;2.75;;;21.20;88.60;;;;;;6259928;28;20056;-81
2023/08/28 14:30:01;;;;;;;2.20;2.00;;;21.20;88.40;;;;;;6254938;28;20045;-83
2023/08/28 14:33:03;;;;;;;1.60;1.50;;;21.10;88.40;;;;;;6255250;28;20045;-82
2023/08/28 14:36:05;;;;;;;1.83;1.58;;;21.00;88.90;;;;;;6256084;28;20046;-83
2023/08/28 14:39:07;;;;;;;3.67;1.63;;;21.10;89.00;;;;;;6255679;28;20053;-83
2023/08/28 14:42:10;;;;;;;2.83;2.15;;;21.10;89.30;;;;;;6269131;28;20109;-82
2023/08/28 14:45:12;;;;;;;3.83;2.05;;;21.10;89.00;;;;;;6254700;28;20492;-83
2023/08/28 14:48:14;;;;;;;1.63;1.52;;;21.10;88.90;;;;;;6251859;28;20423;-83
2023/08/28 14:51:16;;;;;;;4.03;1.73;;;21.10;89.00;;;;;;6252506;28;20495;-82
2023/08/28 14:54:17;;;;;;;1.38;1.20;;;21.10;88.90;;;;;;6252714;28;20045;-83
2023/08/28 14:57:21;;;;;;;5.25;2.78;;;21.10;88.50;;;;;;6251488;28;20068;-81
2023/08/28 15:00:24;;;;;;;4.03;1.77;;;21.00;88.50;;;;;;6253400;28;20049;-83
2023/08/28 15:03:26;;;;;;;2.42;1.63;;;21.00;88.30;;;;;;6252964;28;20515;-83
2023/08/28 15:06:28;;;;;;;4.03;2.17;;;21.00;88.10;;;;;;6251596;28;20046;-82
2023/08/28 15:09:29;;;;;;;3.45;1.65;;;21.00;88.00;;;;;;6251955;28;20555;-83
2023/08/28 15:12:33;;;;;;;2.38;1.58;;;21.00;87.70;;;;;;6252137;28;20041;-83
2023/08/28 15:15:35;;;;;;;3.53;1.60;;;21.00;87.40;;;;;;6252506;28;20103;-82
2023/08/28 15:18:38;;;;;;;1.88;1.40;;;21.10;87.40;;;;;;6252902;28;20052;-85
2023/08/28 15:21:39;;;;;;;1.42;1.17;;;21.10;87.30;;;;;;6251871;28;20057;-83
2023/08/28 15:24:41;;;;;;;2.05;1.60;;;21.00;87.20;;;;;;6251115;28;20531;-82
2023/08/28 15:27:44;;;;;;;3.05;1.90;;;21.00;87.20;;;;;;6251146;28;20057;-82
2023/08/28 15:30:50;;;;;;;3.92;1.85;;;21.00;87.30;;;;;;6251913;28;20037;-85
2023/08/28 15:33:52;;;;;;;2.72;1.67;;;20.90;87.20;;;;;;6252522;28;20060;-81
2023/08/28 15:36:54;;;;;;;2.45;1.50;;;20.90;87.30;;;;;;6250516;28;20049;-82
2023/08/28 15:39:56;;;;;;;1.30;1.15;;;20.90;87.10;;;;;;6249749;28;20073;-79
2023/08/28 15:42:59;;;;;;;3.83;2.22;;;20.90;87.20;;;;;;6243694;28;20059;-81
2023/08/28 15:46:03;;;;;;;2.78;1.85;;;20.90;87.30;;;;;;6226851;28;20090;-81
2023/08/28 15:49:05;;;;;;;1.08;0.98;;;20.80;87.30;;;;;;6225773;28;20042;-81
2023/08/28 15:52:07;;;;;;;1.17;1.02;;;20.80;87.50;;;;;;6226556;28;20069;-82
2023/08/28 15:55:09;;;;;;;3.40;1.85;;;20.70;87.60;;;;;;6229923;28;20041;-82